sensor_id;sensor_type;location;lat;lon;timestamp;P1;durP1;ratioP1;P2;durP2;ratioP2
5867;SDS011;2960;49.142;7.768;2023-08-20T00:01:23;14.00;;;7.00;;
5867;SDS011;2960;49.142;7.768;2023-08-20T00:03:52;13.83;;;7.03;;
5867;SDS011;2960;49.142;7.768;2023-08-20T00:06:23;13.70;;;6.40;;
5867;SDS011;2960;49.142;7.768;2023-08-20T00:08:51;14.30;;;6.97;;
5867;SDS011;2960;49.142;7.768;2023-08-20T00:11:18;13.70;;;6.63;;
5867;SDS011;2960;49.142;7.768;2023-08-20T00:13:47;13.97;;;6.90;;
5867;SDS011;2960;49.142;7.768;2023-08-20T00:16:14;14.70;;;6.83;;
5867;SDS011;2960;49.142;7.768;2023-08-20T00:18:42;13.73;;;6.63;;
5867;SDS011;2960;49.142;7.768;2023-08-20T00:21:10;16.07;;;7.27;;
5867;SDS011;2960;49.142;7.768;2023-08-20T00:23:38;13.27;;;6.27;;
5867;SDS011;2960;49.142;7.768;2023-08-20T00:26:06;14.57;;;6.80;;
5867;SDS011;2960;49.142;7.768;2023-08-20T00:28:34;13.90;;;6.93;;
5867;SDS011;2960;49.142;7.768;2023-08-20T00:31:04;13.83;;;6.60;;
5867;SDS011;2960;49.142;7.768;2023-08-20T00:33:32;15.07;;;6.87;;
5867;SDS011;2960;49.142;7.768;2023-08-20T00:35:59;13.67;;;6.90;;
5867;SDS011;2960;49.142;7.768;2023-08-20T00:38:26;13.87;;;7.10;;
5867;SDS011;2960;49.142;7.768;2023-08-20T00:40:53;14.13;;;6.67;;
5867;SDS011;2960;49.142;7.768;2023-08-20T00:43:20;14.83;;;7.63;;
5867;SDS011;2960;49.142;7.768;2023-08-20T00:45:47;14.90;;;7.03;;
5867;SDS011;2960;49.142;7.768;2023-08-20T00:48:16;14.93;;;6.87;;
5867;SDS011;2960;49.142;7.768;2023-08-20T00:50:43;14.00;;;6.70;;
5867;SDS011;2960;49.142;7.768;2023-08-20T00:53:11;14.30;;;6.90;;
5867;SDS011;2960;49.142;7.768;2023-08-20T00:55:40;13.30;;;6.70;;
5867;SDS011;2960;49.142;7.768;2023-08-20T00:58:08;14.50;;;6.90;;
5867;SDS011;2960;49.142;7.768;2023-08-20T01:00:36;14.60;;;7.10;;
5867;SDS011;2960;49.142;7.768;2023-08-20T01:03:04;13.60;;;6.50;;
5867;SDS011;2960;49.142;7.768;2023-08-20T01:05:33;14.30;;;7.10;;
5867;SDS011;2960;49.142;7.768;2023-08-20T01:08:13;13.67;;;6.77;;
5867;SDS011;2960;49.142;7.768;2023-08-20T01:10:56;14.40;;;6.43;;
5867;SDS011;2960;49.142;7.768;2023-08-20T01:13:30;15.50;;;7.00;;
5867;SDS011;2960;49.142;7.768;2023-08-20T01:15:59;14.03;;;6.70;;
5867;SDS011;2960;49.142;7.768;2023-08-20T01:18:26;15.23;;;6.77;;
5867;SDS011;2960;49.142;7.768;2023-08-20T01:20:57;14.20;;;7.30;;
5867;SDS011;2960;49.142;7.768;2023-08-20T01:23:39;13.57;;;6.23;;
5867;SDS011;2960;49.142;7.768;2023-08-20T01:26:32;14.60;;;6.67;;
5867;SDS011;2960;49.142;7.768;2023-08-20T01:29:17;15.60;;;7.03;;
5867;SDS011;2960;49.142;7.768;2023-08-20T01:31:45;14.40;;;7.30;;
5867;SDS011;2960;49.142;7.768;2023-08-20T01:34:13;15.47;;;6.93;;
5867;SDS011;2960;49.142;7.768;2023-08-20T01:36:40;14.53;;;6.93;;
5867;SDS011;2960;49.142;7.768;2023-08-20T01:39:07;13.70;;;6.90;;
5867;SDS011;2960;49.142;7.768;2023-08-20T01:41:34;14.60;;;7.13;;
5867;SDS011;2960;49.142;7.768;2023-08-20T01:44:01;14.77;;;6.60;;
5867;SDS011;2960;49.142;7.768;2023-08-20T01:46:30;15.23;;;6.50;;
5867;SDS011;2960;49.142;7.768;2023-08-20T01:48:57;14.20;;;6.50;;
5867;SDS011;2960;49.142;7.768;2023-08-20T01:51:24;13.97;;;6.50;;
5867;SDS011;2960;49.142;7.768;2023-08-20T01:53:51;14.33;;;6.77;;
5867;SDS011;2960;49.142;7.768;2023-08-20T01:56:18;14.60;;;6.90;;
5867;SDS011;2960;49.142;7.768;2023-08-20T01:58:45;13.87;;;6.70;;
5867;SDS011;2960;49.142;7.768;2023-08-20T02:01:12;14.77;;;6.20;;
5867;SDS011;2960;49.142;7.768;2023-08-20T02:03:44;14.50;;;6.50;;
5867;SDS011;2960;49.142;7.768;2023-08-20T02:06:11;14.23;;;6.40;;
5867;SDS011;2960;49.142;7.768;2023-08-20T02:08:38;12.93;;;6.43;;
5867;SDS011;2960;49.142;7.768;2023-08-20T02:11:05;13.80;;;7.07;;
5867;SDS011;2960;49.142;7.768;2023-08-20T02:13:32;14.47;;;6.50;;
5867;SDS011;2960;49.142;7.768;2023-08-20T02:16:00;14.60;;;6.73;;
5867;SDS011;2960;49.142;7.768;2023-08-20T02:18:27;15.63;;;6.93;;
5867;SDS011;2960;49.142;7.768;2023-08-20T02:20:56;14.43;;;6.77;;
5867;SDS011;2960;49.142;7.768;2023-08-20T02:23:23;14.07;;;6.70;;
5867;SDS011;2960;49.142;7.768;2023-08-20T02:25:51;13.10;;;6.30;;
5867;SDS011;2960;49.142;7.768;2023-08-20T02:28:18;12.63;;;5.80;;
5867;SDS011;2960;49.142;7.768;2023-08-20T02:30:45;13.53;;;6.40;;
5867;SDS011;2960;49.142;7.768;2023-08-20T02:33:13;15.03;;;6.67;;
5867;SDS011;2960;49.142;7.768;2023-08-20T02:35:41;14.80;;;6.70;;
5867;SDS011;2960;49.142;7.768;2023-08-20T02:38:09;14.50;;;7.17;;
5867;SDS011;2960;49.142;7.768;2023-08-20T02:40:40;14.00;;;6.00;;
5867;SDS011;2960;49.142;7.768;2023-08-20T02:43:08;14.40;;;7.17;;
5867;SDS011;2960;49.142;7.768;2023-08-20T02:45:39;14.67;;;6.23;;
5867;SDS011;2960;49.142;7.768;2023-08-20T02:48:08;14.23;;;6.80;;
5867;SDS011;2960;49.142;7.768;2023-08-20T02:50:35;14.60;;;6.73;;
5867;SDS011;2960;49.142;7.768;2023-08-20T02:53:02;14.70;;;6.80;;
5867;SDS011;2960;49.142;7.768;2023-08-20T02:55:31;13.73;;;6.20;;
5867;SDS011;2960;49.142;7.768;2023-08-20T02:58:00;15.00;;;7.33;;
5867;SDS011;2960;49.142;7.768;2023-08-20T03:00:28;14.20;;;6.40;;
5867;SDS011;2960;49.142;7.768;2023-08-20T03:02:56;16.20;;;7.10;;
5867;SDS011;2960;49.142;7.768;2023-08-20T03:05:23;14.80;;;6.97;;
5867;SDS011;2960;49.142;7.768;2023-08-20T03:07:51;14.33;;;6.73;;
5867;SDS011;2960;49.142;7.768;2023-08-20T03:10:18;14.50;;;6.53;;
5867;SDS011;2960;49.142;7.768;2023-08-20T03:12:46;14.20;;;6.80;;
5867;SDS011;2960;49.142;7.768;2023-08-20T03:15:14;14.20;;;6.67;;
5867;SDS011;2960;49.142;7.768;2023-08-20T03:17:41;14.90;;;7.33;;
5867;SDS011;2960;49.142;7.768;2023-08-20T03:20:08;13.97;;;6.17;;
5867;SDS011;2960;49.142;7.768;2023-08-20T03:22:37;14.50;;;7.13;;
5867;SDS011;2960;49.142;7.768;2023-08-20T03:25:04;15.37;;;6.93;;
5867;SDS011;2960;49.142;7.768;2023-08-20T03:27:32;14.10;;;6.90;;
5867;SDS011;2960;49.142;7.768;2023-08-20T03:30:01;13.73;;;6.70;;
5867;SDS011;2960;49.142;7.768;2023-08-20T03:32:29;14.60;;;6.80;;
5867;SDS011;2960;49.142;7.768;2023-08-20T03:34:56;15.00;;;7.37;;
5867;SDS011;2960;49.142;7.768;2023-08-20T03:37:24;13.37;;;6.40;;
5867;SDS011;2960;49.142;7.768;2023-08-20T03:39:51;14.33;;;6.40;;
5867;SDS011;2960;49.142;7.768;2023-08-20T03:42:18;14.40;;;6.70;;
5867;SDS011;2960;49.142;7.768;2023-08-20T03:44:45;14.53;;;6.90;;
5867;SDS011;2960;49.142;7.768;2023-08-20T03:47:14;14.40;;;7.10;;
5867;SDS011;2960;49.142;7.768;2023-08-20T03:49:45;14.10;;;6.90;;
5867;SDS011;2960;49.142;7.768;2023-08-20T03:52:13;15.30;;;6.40;;
5867;SDS011;2960;49.142;7.768;2023-08-20T03:54:40;15.97;;;7.40;;
5867;SDS011;2960;49.142;7.768;2023-08-20T03:57:07;13.13;;;6.50;;
5867;SDS011;2960;49.142;7.768;2023-08-20T03:59:34;18.70;;;7.50;;
5867;SDS011;2960;49.142;7.768;2023-08-20T04:02:01;15.70;;;7.10;;
5867;SDS011;2960;49.142;7.768;2023-08-20T04:04:30;13.77;;;6.83;;
5867;SDS011;2960;49.142;7.768;2023-08-20T04:06:57;14.40;;;6.73;;
5867;SDS011;2960;49.142;7.768;2023-08-20T04:09:25;13.83;;;6.70;;
5867;SDS011;2960;49.142;7.768;2023-08-20T04:11:52;13.93;;;6.67;;
5867;SDS011;2960;49.142;7.768;2023-08-20T04:14:19;14.00;;;6.43;;
5867;SDS011;2960;49.142;7.768;2023-08-20T04:16:46;14.10;;;6.57;;
5867;SDS011;2960;49.142;7.768;2023-08-20T04:19:13;13.20;;;6.07;;
5867;SDS011;2960;49.142;7.768;2023-08-20T04:21:41;14.43;;;6.57;;
5867;SDS011;2960;49.142;7.768;2023-08-20T04:24:08;14.43;;;6.60;;
5867;SDS011;2960;49.142;7.768;2023-08-20T04:26:35;13.93;;;6.17;;
5867;SDS011;2960;49.142;7.768;2023-08-20T04:29:03;13.80;;;6.97;;
5867;SDS011;2960;49.142;7.768;2023-08-20T04:31:30;14.40;;;6.93;;
5867;SDS011;2960;49.142;7.768;2023-08-20T04:34:00;13.90;;;6.57;;
5867;SDS011;2960;49.142;7.768;2023-08-20T04:36:27;13.40;;;6.57;;
5867;SDS011;2960;49.142;7.768;2023-08-20T04:38:55;13.93;;;6.70;;
5867;SDS011;2960;49.142;7.768;2023-08-20T04:41:22;13.67;;;6.73;;
5867;SDS011;2960;49.142;7.768;2023-08-20T04:43:49;13.93;;;6.90;;
5867;SDS011;2960;49.142;7.768;2023-08-20T04:46:17;14.03;;;6.97;;
5867;SDS011;2960;49.142;7.768;2023-08-20T04:48:46;15.27;;;7.13;;
5867;SDS011;2960;49.142;7.768;2023-08-20T04:51:15;13.90;;;6.70;;
5867;SDS011;2960;49.142;7.768;2023-08-20T04:53:42;15.33;;;7.27;;
5867;SDS011;2960;49.142;7.768;2023-08-20T04:56:10;14.03;;;6.70;;
5867;SDS011;2960;49.142;7.768;2023-08-20T04:58:38;14.53;;;6.67;;
5867;SDS011;2960;49.142;7.768;2023-08-20T05:01:05;14.37;;;6.10;;
5867;SDS011;2960;49.142;7.768;2023-08-20T05:03:33;13.63;;;6.70;;
5867;SDS011;2960;49.142;7.768;2023-08-20T05:06:01;12.80;;;6.17;;
5867;SDS011;2960;49.142;7.768;2023-08-20T05:08:29;13.67;;;6.30;;
5867;SDS011;2960;49.142;7.768;2023-08-20T05:10:56;13.80;;;6.60;;
5867;SDS011;2960;49.142;7.768;2023-08-20T05:13:24;14.40;;;7.10;;
5867;SDS011;2960;49.142;7.768;2023-08-20T05:15:51;14.27;;;6.80;;
5867;SDS011;2960;49.142;7.768;2023-08-20T05:18:18;13.90;;;6.40;;
5867;SDS011;2960;49.142;7.768;2023-08-20T05:20:46;13.33;;;6.37;;
5867;SDS011;2960;49.142;7.768;2023-08-20T05:23:13;13.97;;;6.80;;
5867;SDS011;2960;49.142;7.768;2023-08-20T05:25:40;14.10;;;6.40;;
5867;SDS011;2960;49.142;7.768;2023-08-20T05:28:07;13.87;;;6.50;;
5867;SDS011;2960;49.142;7.768;2023-08-20T05:30:38;13.87;;;6.50;;
5867;SDS011;2960;49.142;7.768;2023-08-20T05:33:05;12.97;;;6.07;;
5867;SDS011;2960;49.142;7.768;2023-08-20T05:35:32;13.73;;;6.47;;
5867;SDS011;2960;49.142;7.768;2023-08-20T05:38:01;13.60;;;6.57;;
5867;SDS011;2960;49.142;7.768;2023-08-20T05:40:28;13.90;;;5.90;;
5867;SDS011;2960;49.142;7.768;2023-08-20T05:42:55;13.90;;;6.30;;
5867;SDS011;2960;49.142;7.768;2023-08-20T05:45:22;13.63;;;6.70;;
5867;SDS011;2960;49.142;7.768;2023-08-20T05:47:50;13.70;;;6.50;;
5867;SDS011;2960;49.142;7.768;2023-08-20T05:50:17;12.90;;;6.00;;
5867;SDS011;2960;49.142;7.768;2023-08-20T05:52:44;13.80;;;6.20;;
5867;SDS011;2960;49.142;7.768;2023-08-20T05:55:11;13.90;;;6.20;;
5867;SDS011;2960;49.142;7.768;2023-08-20T05:57:39;12.83;;;5.83;;
5867;SDS011;2960;49.142;7.768;2023-08-20T06:00:08;13.83;;;6.47;;
5867;SDS011;2960;49.142;7.768;2023-08-20T06:02:37;12.90;;;5.67;;
5867;SDS011;2960;49.142;7.768;2023-08-20T06:05:05;13.33;;;6.10;;
5867;SDS011;2960;49.142;7.768;2023-08-20T06:07:33;12.90;;;6.00;;
5867;SDS011;2960;49.142;7.768;2023-08-20T06:10:00;13.67;;;6.00;;
5867;SDS011;2960;49.142;7.768;2023-08-20T06:12:28;14.57;;;6.90;;
5867;SDS011;2960;49.142;7.768;2023-08-20T06:14:55;13.30;;;6.20;;
5867;SDS011;2960;49.142;7.768;2023-08-20T06:17:22;13.87;;;6.30;;
5867;SDS011;2960;49.142;7.768;2023-08-20T06:19:50;13.33;;;6.23;;
5867;SDS011;2960;49.142;7.768;2023-08-20T06:22:18;13.27;;;6.23;;
5867;SDS011;2960;49.142;7.768;2023-08-20T06:24:45;13.70;;;6.10;;
5867;SDS011;2960;49.142;7.768;2023-08-20T06:27:12;12.80;;;5.97;;
5867;SDS011;2960;49.142;7.768;2023-08-20T06:29:39;14.00;;;6.50;;
5867;SDS011;2960;49.142;7.768;2023-08-20T06:32:06;13.37;;;6.23;;
5867;SDS011;2960;49.142;7.768;2023-08-20T06:34:34;16.10;;;6.60;;
5867;SDS011;2960;49.142;7.768;2023-08-20T06:37:01;12.70;;;6.07;;
5867;SDS011;2960;49.142;7.768;2023-08-20T06:39:30;13.13;;;6.20;;
5867;SDS011;2960;49.142;7.768;2023-08-20T06:41:57;14.10;;;6.37;;
5867;SDS011;2960;49.142;7.768;2023-08-20T06:44:24;13.03;;;6.17;;
5867;SDS011;2960;49.142;7.768;2023-08-20T06:46:51;13.07;;;6.07;;
5867;SDS011;2960;49.142;7.768;2023-08-20T06:49:18;13.97;;;6.30;;
5867;SDS011;2960;49.142;7.768;2023-08-20T06:51:45;13.23;;;5.80;;
5867;SDS011;2960;49.142;7.768;2023-08-20T06:54:12;12.83;;;5.90;;
5867;SDS011;2960;49.142;7.768;2023-08-20T06:56:42;13.80;;;6.10;;
5867;SDS011;2960;49.142;7.768;2023-08-20T06:59:09;12.70;;;5.80;;
5867;SDS011;2960;49.142;7.768;2023-08-20T07:01:36;13.20;;;6.23;;
5867;SDS011;2960;49.142;7.768;2023-08-20T07:04:03;15.60;;;5.67;;
5867;SDS011;2960;49.142;7.768;2023-08-20T07:06:31;12.60;;;5.60;;
5867;SDS011;2960;49.142;7.768;2023-08-20T07:08:59;12.40;;;5.60;;
5867;SDS011;2960;49.142;7.768;2023-08-20T07:11:26;12.50;;;5.63;;
5867;SDS011;2960;49.142;7.768;2023-08-20T07:13:54;12.30;;;5.67;;
5867;SDS011;2960;49.142;7.768;2023-08-20T07:16:21;13.23;;;6.10;;
5867;SDS011;2960;49.142;7.768;2023-08-20T07:18:48;12.60;;;5.80;;
5867;SDS011;2960;49.142;7.768;2023-08-20T07:21:16;13.37;;;6.47;;
5867;SDS011;2960;49.142;7.768;2023-08-20T07:23:43;13.13;;;5.90;;
5867;SDS011;2960;49.142;7.768;2023-08-20T07:26:10;13.43;;;5.70;;
5867;SDS011;2960;49.142;7.768;2023-08-20T07:28:38;12.40;;;5.57;;
5867;SDS011;2960;49.142;7.768;2023-08-20T07:31:27;12.50;;;5.83;;
5867;SDS011;2960;49.142;7.768;2023-08-20T07:33:55;12.63;;;5.47;;
5867;SDS011;2960;49.142;7.768;2023-08-20T07:36:24;13.80;;;5.80;;
5867;SDS011;2960;49.142;7.768;2023-08-20T07:38:52;13.27;;;6.00;;
5867;SDS011;2960;49.142;7.768;2023-08-20T07:41:20;12.13;;;5.30;;
5867;SDS011;2960;49.142;7.768;2023-08-20T07:43:48;12.07;;;5.30;;
5867;SDS011;2960;49.142;7.768;2023-08-20T07:46:15;12.97;;;5.30;;
5867;SDS011;2960;49.142;7.768;2023-08-20T07:48:44;13.40;;;5.53;;
5867;SDS011;2960;49.142;7.768;2023-08-20T07:51:11;12.57;;;6.03;;
5867;SDS011;2960;49.142;7.768;2023-08-20T07:53:39;12.50;;;5.63;;
5867;SDS011;2960;49.142;7.768;2023-08-20T07:56:06;12.83;;;5.90;;
5867;SDS011;2960;49.142;7.768;2023-08-20T07:58:34;12.70;;;5.80;;
5867;SDS011;2960;49.142;7.768;2023-08-20T08:01:01;14.50;;;6.30;;
5867;SDS011;2960;49.142;7.768;2023-08-20T08:03:28;12.27;;;5.73;;
5867;SDS011;2960;49.142;7.768;2023-08-20T08:05:56;12.00;;;5.63;;
5867;SDS011;2960;49.142;7.768;2023-08-20T08:08:23;12.53;;;6.07;;
5867;SDS011;2960;49.142;7.768;2023-08-20T08:10:51;12.67;;;6.17;;
5867;SDS011;2960;49.142;7.768;2023-08-20T08:13:19;13.10;;;5.77;;
5867;SDS011;2960;49.142;7.768;2023-08-20T08:15:48;11.97;;;5.43;;
5867;SDS011;2960;49.142;7.768;2023-08-20T08:18:15;12.43;;;5.90;;
5867;SDS011;2960;49.142;7.768;2023-08-20T08:20:47;12.13;;;5.63;;
5867;SDS011;2960;49.142;7.768;2023-08-20T08:23:16;12.93;;;6.00;;
5867;SDS011;2960;49.142;7.768;2023-08-20T08:25:43;12.80;;;6.00;;
5867;SDS011;2960;49.142;7.768;2023-08-20T08:28:10;12.30;;;6.27;;
5867;SDS011;2960;49.142;7.768;2023-08-20T08:30:37;13.60;;;5.93;;
5867;SDS011;2960;49.142;7.768;2023-08-20T08:33:06;12.37;;;5.73;;
5867;SDS011;2960;49.142;7.768;2023-08-20T08:35:33;12.23;;;5.87;;
5867;SDS011;2960;49.142;7.768;2023-08-20T08:38:00;12.10;;;5.87;;
5867;SDS011;2960;49.142;7.768;2023-08-20T08:40:30;12.47;;;6.13;;
5867;SDS011;2960;49.142;7.768;2023-08-20T08:42:57;13.77;;;5.60;;
5867;SDS011;2960;49.142;7.768;2023-08-20T08:45:26;13.10;;;6.10;;
5867;SDS011;2960;49.142;7.768;2023-08-20T08:47:56;11.83;;;5.77;;
5867;SDS011;2960;49.142;7.768;2023-08-20T08:50:23;12.20;;;5.60;;
5867;SDS011;2960;49.142;7.768;2023-08-20T08:52:50;12.00;;;5.60;;
5867;SDS011;2960;49.142;7.768;2023-08-20T08:55:19;12.10;;;5.57;;
5867;SDS011;2960;49.142;7.768;2023-08-20T08:57:48;12.20;;;5.57;;
5867;SDS011;2960;49.142;7.768;2023-08-20T09:00:15;12.10;;;6.10;;
5867;SDS011;2960;49.142;7.768;2023-08-20T09:02:42;12.37;;;5.80;;
5867;SDS011;2960;49.142;7.768;2023-08-20T09:05:09;12.93;;;6.40;;
5867;SDS011;2960;49.142;7.768;2023-08-20T09:07:40;12.57;;;5.97;;
5867;SDS011;2960;49.142;7.768;2023-08-20T09:10:09;11.70;;;5.73;;
5867;SDS011;2960;49.142;7.768;2023-08-20T09:12:37;12.13;;;6.07;;
5867;SDS011;2960;49.142;7.768;2023-08-20T09:15:09;12.40;;;5.97;;
5867;SDS011;2960;49.142;7.768;2023-08-20T09:17:36;12.30;;;6.07;;
5867;SDS011;2960;49.142;7.768;2023-08-20T09:20:04;12.37;;;5.90;;
5867;SDS011;2960;49.142;7.768;2023-08-20T09:22:32;13.50;;;6.27;;
5867;SDS011;2960;49.142;7.768;2023-08-20T09:25:02;12.30;;;5.93;;
5867;SDS011;2960;49.142;7.768;2023-08-20T09:27:30;12.13;;;5.67;;
5867;SDS011;2960;49.142;7.768;2023-08-20T09:30:08;13.03;;;5.60;;
5867;SDS011;2960;49.142;7.768;2023-08-20T09:32:36;11.77;;;5.50;;
5867;SDS011;2960;49.142;7.768;2023-08-20T09:35:04;13.73;;;6.30;;
5867;SDS011;2960;49.142;7.768;2023-08-20T09:37:33;12.27;;;5.90;;
5867;SDS011;2960;49.142;7.768;2023-08-20T09:40:01;11.87;;;5.93;;
5867;SDS011;2960;49.142;7.768;2023-08-20T09:42:29;13.60;;;5.87;;
5867;SDS011;2960;49.142;7.768;2023-08-20T09:44:59;11.90;;;5.57;;
5867;SDS011;2960;49.142;7.768;2023-08-20T09:47:31;13.20;;;5.83;;
5867;SDS011;2960;49.142;7.768;2023-08-20T09:50:02;12.60;;;5.93;;
5867;SDS011;2960;49.142;7.768;2023-08-20T09:52:34;11.90;;;5.60;;
5867;SDS011;2960;49.142;7.768;2023-08-20T09:55:06;12.37;;;5.93;;
5867;SDS011;2960;49.142;7.768;2023-08-20T09:57:36;12.20;;;5.60;;
5867;SDS011;2960;49.142;7.768;2023-08-20T10:00:09;11.60;;;5.70;;
5867;SDS011;2960;49.142;7.768;2023-08-20T10:02:41;12.30;;;5.50;;
5867;SDS011;2960;49.142;7.768;2023-08-20T10:05:09;12.60;;;6.30;;
5867;SDS011;2960;49.142;7.768;2023-08-20T10:07:38;11.70;;;5.73;;
5867;SDS011;2960;49.142;7.768;2023-08-20T10:10:06;11.70;;;5.47;;
5867;SDS011;2960;49.142;7.768;2023-08-20T10:12:36;11.87;;;5.67;;
5867;SDS011;2960;49.142;7.768;2023-08-20T10:15:06;12.43;;;5.70;;
5867;SDS011;2960;49.142;7.768;2023-08-20T10:17:36;11.37;;;5.30;;
5867;SDS011;2960;49.142;7.768;2023-08-20T10:20:10;11.93;;;5.70;;
5867;SDS011;2960;49.142;7.768;2023-08-20T10:22:41;12.03;;;5.73;;
5867;SDS011;2960;49.142;7.768;2023-08-20T10:25:10;11.30;;;5.33;;
5867;SDS011;2960;49.142;7.768;2023-08-20T10:27:39;12.50;;;5.93;;
5867;SDS011;2960;49.142;7.768;2023-08-20T10:30:08;11.83;;;5.83;;
5867;SDS011;2960;49.142;7.768;2023-08-20T10:32:45;12.00;;;5.50;;
5867;SDS011;2960;49.142;7.768;2023-08-20T10:35:15;12.20;;;5.70;;
5867;SDS011;2960;49.142;7.768;2023-08-20T10:40:46;10.50;;;4.57;;
5867;SDS011;2960;49.142;7.768;2023-08-20T10:43:30;11.13;;;4.80;;
5867;SDS011;2960;49.142;7.768;2023-08-20T10:46:02;11.73;;;5.40;;
5867;SDS011;2960;49.142;7.768;2023-08-20T10:51:06;11.20;;;5.23;;
5867;SDS011;2960;49.142;7.768;2023-08-20T10:53:37;11.43;;;5.30;;
5867;SDS011;2960;49.142;7.768;2023-08-20T10:56:07;11.43;;;5.50;;
5867;SDS011;2960;49.142;7.768;2023-08-20T10:58:40;11.40;;;4.90;;
5867;SDS011;2960;49.142;7.768;2023-08-20T11:01:12;11.70;;;4.73;;
5867;SDS011;2960;49.142;7.768;2023-08-20T11:03:48;11.47;;;4.83;;
5867;SDS011;2960;49.142;7.768;2023-08-20T11:06:16;10.77;;;5.10;;
5867;SDS011;2960;49.142;7.768;2023-08-20T11:08:44;11.10;;;5.10;;
5867;SDS011;2960;49.142;7.768;2023-08-20T11:11:12;11.00;;;5.00;;
5867;SDS011;2960;49.142;7.768;2023-08-20T11:13:40;11.00;;;5.13;;
5867;SDS011;2960;49.142;7.768;2023-08-20T11:16:07;11.17;;;4.80;;
5867;SDS011;2960;49.142;7.768;2023-08-20T11:18:35;11.57;;;5.07;;
5867;SDS011;2960;49.142;7.768;2023-08-20T11:21:04;12.07;;;5.00;;
5867;SDS011;2960;49.142;7.768;2023-08-20T11:23:31;11.30;;;5.07;;
5867;SDS011;2960;49.142;7.768;2023-08-20T11:25:59;10.90;;;4.73;;
5867;SDS011;2960;49.142;7.768;2023-08-20T11:28:27;11.03;;;4.80;;
5867;SDS011;2960;49.142;7.768;2023-08-20T11:30:55;11.00;;;4.70;;
5867;SDS011;2960;49.142;7.768;2023-08-20T11:33:25;10.40;;;4.67;;
5867;SDS011;2960;49.142;7.768;2023-08-20T11:35:52;13.30;;;5.07;;
5867;SDS011;2960;49.142;7.768;2023-08-20T11:38:22;12.07;;;5.17;;
5867;SDS011;2960;49.142;7.768;2023-08-20T11:40:51;10.90;;;4.87;;
5867;SDS011;2960;49.142;7.768;2023-08-20T11:43:18;11.10;;;5.13;;
5867;SDS011;2960;49.142;7.768;2023-08-20T11:45:46;12.03;;;5.40;;
5867;SDS011;2960;49.142;7.768;2023-08-20T11:48:14;11.20;;;5.30;;
5867;SDS011;2960;49.142;7.768;2023-08-20T11:50:42;11.30;;;5.03;;
5867;SDS011;2960;49.142;7.768;2023-08-20T11:53:12;11.67;;;5.23;;
5867;SDS011;2960;49.142;7.768;2023-08-20T11:55:41;11.20;;;4.83;;
5867;SDS011;2960;49.142;7.768;2023-08-20T11:58:09;11.03;;;4.90;;
5867;SDS011;2960;49.142;7.768;2023-08-20T12:00:38;11.37;;;4.70;;
5867;SDS011;2960;49.142;7.768;2023-08-20T12:03:07;11.83;;;4.90;;
5867;SDS011;2960;49.142;7.768;2023-08-20T12:05:35;11.07;;;5.20;;
5867;SDS011;2960;49.142;7.768;2023-08-20T12:08:02;10.60;;;4.87;;
5867;SDS011;2960;49.142;7.768;2023-08-20T12:10:31;11.10;;;5.00;;
5867;SDS011;2960;49.142;7.768;2023-08-20T12:13:00;11.60;;;5.40;;
5867;SDS011;2960;49.142;7.768;2023-08-20T12:15:29;10.90;;;4.97;;
5867;SDS011;2960;49.142;7.768;2023-08-20T12:17:58;10.77;;;4.97;;
5867;SDS011;2960;49.142;7.768;2023-08-20T12:20:29;10.80;;;4.90;;
5867;SDS011;2960;49.142;7.768;2023-08-20T12:22:58;11.30;;;4.47;;
5867;SDS011;2960;49.142;7.768;2023-08-20T12:25:29;10.27;;;4.33;;
5867;SDS011;2960;49.142;7.768;2023-08-20T12:28:00;11.13;;;4.83;;
5867;SDS011;2960;49.142;7.768;2023-08-20T12:30:28;11.37;;;5.07;;
5867;SDS011;2960;49.142;7.768;2023-08-20T12:32:55;11.50;;;5.10;;
5867;SDS011;2960;49.142;7.768;2023-08-20T12:35:25;10.50;;;4.60;;
5867;SDS011;2960;49.142;7.768;2023-08-20T12:37:52;11.27;;;5.00;;
5867;SDS011;2960;49.142;7.768;2023-08-20T12:40:19;11.10;;;4.90;;
5867;SDS011;2960;49.142;7.768;2023-08-20T12:42:47;10.93;;;5.00;;
5867;SDS011;2960;49.142;7.768;2023-08-20T12:45:16;11.30;;;5.10;;
5867;SDS011;2960;49.142;7.768;2023-08-20T12:47:43;10.60;;;4.73;;
5867;SDS011;2960;49.142;7.768;2023-08-20T12:50:13;10.43;;;4.70;;
5867;SDS011;2960;49.142;7.768;2023-08-20T12:52:40;10.80;;;4.67;;
5867;SDS011;2960;49.142;7.768;2023-08-20T12:55:08;10.90;;;4.90;;
5867;SDS011;2960;49.142;7.768;2023-08-20T12:57:35;11.33;;;5.20;;
5867;SDS011;2960;49.142;7.768;2023-08-20T13:00:03;11.10;;;4.40;;
5867;SDS011;2960;49.142;7.768;2023-08-20T13:02:37;10.27;;;4.40;;
5867;SDS011;2960;49.142;7.768;2023-08-20T13:05:06;13.53;;;4.53;;
5867;SDS011;2960;49.142;7.768;2023-08-20T13:07:35;11.57;;;5.03;;
5867;SDS011;2960;49.142;7.768;2023-08-20T13:10:03;10.77;;;4.50;;
5867;SDS011;2960;49.142;7.768;2023-08-20T13:12:33;10.93;;;4.97;;
5867;SDS011;2960;49.142;7.768;2023-08-20T13:15:02;11.13;;;4.80;;
5867;SDS011;2960;49.142;7.768;2023-08-20T13:17:31;10.50;;;4.80;;
5867;SDS011;2960;49.142;7.768;2023-08-20T13:20:01;11.87;;;4.83;;
5867;SDS011;2960;49.142;7.768;2023-08-20T13:22:28;11.00;;;4.80;;
5867;SDS011;2960;49.142;7.768;2023-08-20T13:24:56;10.53;;;4.77;;
5867;SDS011;2960;49.142;7.768;2023-08-20T13:27:23;11.20;;;4.63;;
5867;SDS011;2960;49.142;7.768;2023-08-20T13:29:50;10.30;;;4.57;;
5867;SDS011;2960;49.142;7.768;2023-08-20T13:32:18;10.73;;;4.90;;
5867;SDS011;2960;49.142;7.768;2023-08-20T13:34:46;11.00;;;5.10;;
5867;SDS011;2960;49.142;7.768;2023-08-20T13:37:16;10.50;;;4.63;;
5867;SDS011;2960;49.142;7.768;2023-08-20T13:39:43;10.80;;;4.70;;
5867;SDS011;2960;49.142;7.768;2023-08-20T13:42:11;10.50;;;4.30;;
5867;SDS011;2960;49.142;7.768;2023-08-20T13:44:38;10.77;;;4.70;;
5867;SDS011;2960;49.142;7.768;2023-08-20T13:47:05;10.50;;;4.57;;
5867;SDS011;2960;49.142;7.768;2023-08-20T13:49:32;10.60;;;4.93;;
5867;SDS011;2960;49.142;7.768;2023-08-20T13:51:59;10.93;;;5.00;;
5867;SDS011;2960;49.142;7.768;2023-08-20T13:54:28;11.03;;;5.10;;
5867;SDS011;2960;49.142;7.768;2023-08-20T13:56:55;10.47;;;4.67;;
5867;SDS011;2960;49.142;7.768;2023-08-20T13:59:22;10.80;;;4.63;;
5867;SDS011;2960;49.142;7.768;2023-08-20T14:01:50;11.13;;;5.03;;
5867;SDS011;2960;49.142;7.768;2023-08-20T14:04:17;11.17;;;4.60;;
5867;SDS011;2960;49.142;7.768;2023-08-20T14:06:44;10.93;;;4.50;;
5867;SDS011;2960;49.142;7.768;2023-08-20T14:09:11;10.60;;;4.40;;
5867;SDS011;2960;49.142;7.768;2023-08-20T14:11:39;11.00;;;4.73;;
5867;SDS011;2960;49.142;7.768;2023-08-20T14:14:06;11.60;;;4.90;;
5867;SDS011;2960;49.142;7.768;2023-08-20T14:16:33;11.10;;;5.10;;
5867;SDS011;2960;49.142;7.768;2023-08-20T14:19:01;10.50;;;4.67;;
5867;SDS011;2960;49.142;7.768;2023-08-20T14:21:28;10.47;;;4.60;;
5867;SDS011;2960;49.142;7.768;2023-08-20T14:23:55;10.80;;;4.93;;
5867;SDS011;2960;49.142;7.768;2023-08-20T14:26:22;11.20;;;4.97;;
5867;SDS011;2960;49.142;7.768;2023-08-20T14:28:50;11.83;;;5.40;;
5867;SDS011;2960;49.142;7.768;2023-08-20T14:31:17;11.23;;;5.63;;
5867;SDS011;2960;49.142;7.768;2023-08-20T14:33:45;11.43;;;5.47;;
5867;SDS011;2960;49.142;7.768;2023-08-20T14:36:12;11.80;;;5.67;;
5867;SDS011;2960;49.142;7.768;2023-08-20T14:38:39;11.13;;;5.10;;
5867;SDS011;2960;49.142;7.768;2023-08-20T14:41:06;11.10;;;4.80;;
5867;SDS011;2960;49.142;7.768;2023-08-20T14:43:33;11.03;;;5.17;;
5867;SDS011;2960;49.142;7.768;2023-08-20T14:46:01;10.63;;;4.57;;
5867;SDS011;2960;49.142;7.768;2023-08-20T14:48:28;11.57;;;4.93;;
5867;SDS011;2960;49.142;7.768;2023-08-20T14:50:56;11.63;;;4.90;;
5867;SDS011;2960;49.142;7.768;2023-08-20T14:53:23;11.90;;;5.20;;
5867;SDS011;2960;49.142;7.768;2023-08-20T14:55:50;11.50;;;5.30;;
5867;SDS011;2960;49.142;7.768;2023-08-20T14:58:17;11.30;;;5.27;;
5867;SDS011;2960;49.142;7.768;2023-08-20T15:00:44;11.10;;;5.20;;
5867;SDS011;2960;49.142;7.768;2023-08-20T15:03:12;11.30;;;5.00;;
5867;SDS011;2960;49.142;7.768;2023-08-20T15:05:39;11.00;;;5.00;;
5867;SDS011;2960;49.142;7.768;2023-08-20T15:08:07;10.77;;;4.73;;
5867;SDS011;2960;49.142;7.768;2023-08-20T15:10:34;11.00;;;5.13;;
5867;SDS011;2960;49.142;7.768;2023-08-20T15:13:01;10.90;;;4.90;;